Time;durP1;ratioP1;P1;durP2;ratioP2;P2;SDS_P1;SDS_P2;PMS_P1;PMS_P2;Temp;Humidity;BMP_temperature;BMP_pressure;BME280_temperature;BME280_humidity;BME280_pressure;Samples;Min_cycle;Max_cycle;Signal;HPM_P1;HPM_P2
2022/01/03 10:03:02;;;;;;;18.25;3.05;;;;;;;18.59;58.81;100350.59;4254220;27;20143;-58
2022/01/03 10:05:06;;;;;;;21.92;3.97;;;;;;;19.04;58.51;100353.16;4242648;27;20126;-61
2022/01/03 10:07:11;;;;;;;14.50;3.10;;;;;;;19.50;57.47;100344.16;4243439;27;20039;-60
2022/01/03 10:09:15;;;;;;;23.88;3.40;;;;;;;19.99;56.41;100349.09;4236374;27;20050;-57
2022/01/03 10:11:20;;;;;;;18.60;3.08;;;;;;;20.42;55.54;100339.16;4237026;27;20047;-60
2022/01/03 10:13:25;;;;;;;12.40;3.35;;;;;;;20.82;54.49;100336.25;4241679;27;20122;-60
2022/01/03 10:15:29;;;;;;;11.05;3.00;;;;;;;21.15;53.40;100322.88;4245387;27;20043;-60
2022/01/03 10:17:35;;;;;;;25.30;3.60;;;;;;;21.47;52.71;100328.91;4242516;27;20035;-61
2022/01/03 10:19:56;;;;;;;21.70;3.22;;;;;;;21.76;52.35;100330.59;4235238;27;20078;-58
2022/01/03 10:21:59;;;;;;;15.93;3.15;;;;;;;22.03;51.18;100334.97;4236645;27;20076;-61
2022/01/03 10:24:03;;;;;;;23.15;3.75;;;;;;;22.24;50.60;100322.75;4242437;27;20051;-59
2022/01/03 10:26:17;;;;;;;16.67;3.28;;;;;;;22.43;50.05;100333.59;4243627;27;20050;-58
2022/01/03 10:28:25;;;;;;;10.02;2.83;;;;;;;22.57;49.33;100310.06;4233229;28;20039;-59
2022/01/03 10:30:34;;;;;;;13.38;2.85;;;;;;;22.75;48.95;100316.47;4240452;27;20528;-58
2022/01/03 10:32:37;;;;;;;26.33;3.88;;;;;;;22.92;48.72;100312.28;4243563;27;20039;-59
2022/01/03 10:34:40;;;;;;;16.10;3.05;;;;;;;23.05;48.27;100312.66;4241368;27;20480;-59
2022/01/03 10:36:47;;;;;;;13.07;3.05;;;;;;;23.14;47.90;100309.66;4239312;27;20125;-59
2022/01/03 10:38:50;;;;;;;15.15;3.22;;;;;;;23.28;47.52;100312.63;4258347;27;20095;-60
2022/01/03 10:41:08;;;;;;;12.60;3.60;;;;;;;23.39;47.50;100316.63;4241076;27;20105;-58
2022/01/03 10:43:17;;;;;;;11.93;3.10;;;;;;;23.50;47.21;100317.88;4243233;27;20043;-57
2022/01/03 10:45:33;;;;;;;10.38;2.78;;;;;;;23.61;47.24;100324.53;4244232;27;20131;-60
2022/01/03 10:47:37;;;;;;;17.67;2.70;;;;;;;23.72;46.71;100316.13;4246656;27;20047;-62
2022/01/03 10:49:41;;;;;;;14.90;3.05;;;;;;;23.80;46.44;100314.00;4235291;27;20373;-60
2022/01/03 10:51:45;;;;;;;;;;;;;;;23.88;47.22;100311.91;4237900;27;20071;-59
2022/01/03 10:53:50;;;;;;;11.65;2.80;;;;;;;24.00;46.08;100315.81;4240536;27;19965;-58
2022/01/03 10:55:53;;;;;;;10.43;3.38;;;;;;;24.08;45.48;100312.81;4238616;27;20130;-58
2022/01/03 10:58:00;;;;;;;11.75;3.17;;;;;;;24.15;45.15;100315.16;4244942;27;20490;-59
2022/01/03 11:00:14;;;;;;;12.90;2.95;;;;;;;24.20;44.96;100318.44;4246175;27;20098;-59
2022/01/03 11:02:17;;;;;;;11.88;2.95;;;;;;;24.27;44.71;100312.84;4237029;27;20098;-59
2022/01/03 11:04:32;;;;;;;13.27;3.13;;;;;;;24.30;44.68;100307.41;4241556;28;20159;-58
2022/01/03 11:07:00;;;;;;;11.85;3.20;;;;;;;24.35;44.31;100316.88;4240983;27;20417;-59
2022/01/03 11:11:34;;;;;;;9.20;3.20;;;;;;;24.48;43.94;100311.03;4236905;28;20499;-59
2022/01/03 11:13:42;;;;;;;13.02;3.20;;;;;;;24.51;43.65;100306.41;4230733;27;20044;-59
2022/01/03 11:15:51;;;;;;;8.27;3.58;;;;;;;24.55;43.49;100305.34;4229461;27;20048;-58
2022/01/03 11:18:09;;;;;;;7.35;2.60;;;;;;;24.61;43.39;100295.41;4232615;27;20061;-59
2022/01/03 11:20:22;;;;;;;9.93;3.15;;;;;;;24.64;43.16;100296.09;4227011;27;20069;-58
2022/01/03 11:22:39;;;;;;;5.32;2.50;;;;;;;24.67;43.17;100292.44;4226864;27;20091;-58
2022/01/03 11:24:48;;;;;;;10.50;2.75;;;;;;;24.71;42.89;100288.72;4228667;27;20051;-56
2022/01/03 11:26:52;;;;;;;8.43;2.33;;;;;;;24.78;42.70;100281.28;4229994;27;20039;-54
2022/01/03 11:28:56;;;;;;;6.28;2.30;;;;;;;24.82;42.72;100278.41;4234421;27;20057;-53
2022/01/03 11:31:02;;;;;;;8.23;3.20;;;;;;;24.90;42.57;100275.41;4228533;27;20447;-53
2022/01/03 11:33:08;;;;;;;6.93;2.88;;;;;;;24.96;42.40;100277.75;4230375;28;20437;-56
2022/01/03 11:35:12;;;;;;;8.05;3.40;;;;;;;25.01;42.33;100277.53;4229118;28;20480;-53
2022/01/03 11:37:15;;;;;;;18.38;3.00;;;;;;;25.02;42.49;100269.47;4226590;27;20039;-50
2022/01/03 11:39:21;;;;;;;10.32;3.25;;;;;;;25.05;42.43;100279.09;4231243;27;20439;-57
2022/01/03 11:41:26;;;;;;;13.25;3.67;;;;;;;25.07;42.29;100269.25;4236612;27;20088;-57
2022/01/03 11:43:30;;;;;;;8.75;2.60;;;;;;;25.14;42.29;100269.81;4234396;27;20044;-59
2022/01/03 11:45:33;;;;;;;5.43;2.40;;;;;;;25.16;42.13;100265.25;4228753;27;20100;-61
2022/01/03 11:47:37;;;;;;;5.67;2.40;;;;;;;25.19;42.11;100270.41;4231139;27;20035;-60
2022/01/03 11:49:41;;;;;;;8.02;3.05;;;;;;;25.23;41.82;100258.69;4225890;27;20051;-59
2022/01/03 11:51:45;;;;;;;10.40;2.90;;;;;;;25.24;41.72;100255.09;4224273;27;20081;-60
2022/01/03 11:53:50;;;;;;;6.72;2.50;;;;;;;25.26;41.62;100255.88;4231979;27;20031;-59
2022/01/03 11:55:54;;;;;;;6.40;2.70;;;;;;;25.27;41.54;100257.63;4230721;27;20040;-59
2022/01/03 11:58:13;;;;;;;;;;;;;;;25.26;42.23;100246.13;4230879;27;20065;-59
2022/01/03 12:05:01;;;;;;;8.43;3.28;;;;;;;25.36;41.34;100246.53;4226203;27;20044;-60
2022/01/03 12:07:06;;;;;;;10.30;3.45;;;;;;;25.39;41.43;100241.06;4225730;27;20092;-59
2022/01/03 12:09:11;;;;;;;10.30;3.13;;;;;;;25.46;41.51;100238.09;4231144;27;20492;-59
2022/01/03 12:11:20;;;;;;;9.30;3.20;;;;;;;25.49;41.44;100241.44;4227737;27;20051;-60
2022/01/03 12:13:49;;;;;;;9.50;3.08;;;;;;;25.58;41.35;100240.09;4231036;27;20425;-60
2022/01/03 12:16:05;;;;;;;12.18;3.70;;;;;;;25.58;41.13;100234.78;4237140;27;20531;-59
2022/01/03 12:18:30;;;;;;;5.47;2.92;;;;;;;25.59;41.15;100223.19;4223572;27;20041;-60
2022/01/03 12:20:40;;;;;;;5.10;2.63;;;;;;;25.57;41.04;100233.06;4239539;27;20051;-59
2022/01/03 12:22:49;;;;;;;7.43;3.20;;;;;;;25.56;40.93;100226.88;4231479;27;20035;-57
2022/01/03 12:25:00;;;;;;;11.88;3.40;;;;;;;25.54;40.95;100226.09;4221375;28;20487;-57
2022/01/03 12:27:22;;;;;;;9.27;2.80;;;;;;;25.55;40.98;100224.28;4232142;27;20118;-55
2022/01/03 12:29:26;;;;;;;8.05;2.72;;;;;;;25.52;41.10;100227.13;4214962;27;20460;-59
2022/01/03 12:32:05;;;;;;;7.82;3.70;;;;;;;25.50;41.01;100240.50;4229072;27;20044;-57
2022/01/03 12:34:20;;;;;;;10.35;3.55;;;;;;;25.53;41.18;100231.50;4218992;27;20057;-57
2022/01/03 12:36:24;;;;;;;11.40;3.40;;;;;;;25.62;40.93;100228.34;4222536;27;20040;-58
2022/01/03 12:38:30;;;;;;;;;;;;;;;25.56;41.31;100234.00;4226812;27;20557;-58
2022/01/03 12:40:35;;;;;;;16.65;4.95;;;;;;;25.62;40.92;100236.34;4227435;27;20403;-59
2022/01/03 12:42:52;;;;;;;18.17;4.72;;;;;;;25.63;40.87;100230.09;4222300;27;20044;-59
2022/01/03 12:44:57;;;;;;;17.33;4.88;;;;;;;25.66;40.77;100227.25;4224876;27;20500;-56
2022/01/03 12:47:16;;;;;;;12.60;5.03;;;;;;;25.66;40.96;100221.94;4225341;27;20135;-58
2022/01/03 12:49:29;;;;;;;13.60;4.88;;;;;;;25.70;41.03;100227.94;4220366;27;20506;-58
2022/01/03 12:51:38;;;;;;;19.75;4.82;;;;;;;25.70;40.97;100218.19;4232064;27;20065;-57
2022/01/03 12:53:56;;;;;;;12.65;4.97;;;;;;;25.74;40.69;100219.75;4222180;28;20393;-56
2022/01/03 12:56:05;;;;;;;25.20;5.03;;;;;;;25.78;40.79;100220.44;4226850;27;20088;-56
2022/01/03 12:58:37;;;;;;;25.15;5.53;;;;;;;25.79;40.77;100209.69;4230340;27;20040;-54
2022/01/03 13:00:43;;;;;;;24.00;5.60;;;;;;;25.80;40.71;100207.88;4224664;28;20057;-56
2022/01/03 13:02:46;;;;;;;25.55;5.88;;;;;;;25.80;40.60;100218.53;4224690;27;20044;-58
2022/01/03 13:04:49;;;;;;;23.90;5.40;;;;;;;25.80;40.73;100205.22;4227832;27;20066;-56
2022/01/03 13:07:01;;;;;;;20.92;5.57;;;;;;;25.75;40.64;100204.63;4224901;27;20435;-57
2022/01/03 13:09:07;;;;;;;23.25;6.57;;;;;;;25.78;40.81;100197.31;4222115;28;20039;-59
2022/01/03 13:11:12;;;;;;;17.73;5.68;;;;;;;25.83;40.64;100194.44;4221859;28;20047;-55
2022/01/03 13:13:27;;;;;;;20.50;5.75;;;;;;;25.82;40.70;100187.38;4226454;28;20097;-58
2022/01/03 13:15:30;;;;;;;23.88;6.03;;;;;;;25.86;40.54;100188.03;4228754;27;20267;-56
2022/01/03 13:17:34;;;;;;;26.48;6.75;;;;;;;25.89;40.68;100179.88;4219811;28;20075;-55
2022/01/03 13:19:41;;;;;;;23.08;6.38;;;;;;;25.89;40.58;100182.56;4224948;28;20059;-57
2022/01/03 13:21:46;;;;;;;18.75;5.70;;;;;;;25.94;40.53;100177.84;4230422;27;20587;-56
2022/01/03 13:23:52;;;;;;;20.48;6.72;;;;;;;25.96;40.51;100175.94;4231433;27;20131;-60
2022/01/03 13:26:02;;;;;;;28.20;7.47;;;;;;;25.99;40.58;100157.13;4232331;27;20140;-58
2022/01/03 13:28:11;;;;;;;25.90;5.97;;;;;;;26.01;40.45;100162.44;4224560;27;20066;-57
2022/01/03 13:30:14;;;;;;;30.55;7.70;;;;;;;26.04;40.32;100156.94;4222978;27;20059;-56
2022/01/03 13:32:20;;;;;;;23.75;6.50;;;;;;;26.04;40.06;100159.59;4223566;27;20039;-57
2022/01/03 13:34:27;;;;;;;18.60;5.93;;;;;;;26.07;40.15;100156.75;4230646;27;20432;-58
2022/01/03 13:36:35;;;;;;;17.77;6.45;;;;;;;26.02;40.32;100157.03;4228908;27;20471;-56
2022/01/03 13:38:38;;;;;;;18.27;5.95;;;;;;;26.04;40.03;100165.78;4223322;27;20066;-56
2022/01/03 13:40:41;;;;;;;13.98;5.10;;;;;;;26.08;39.85;100155.78;4229072;27;20508;-53
2022/01/03 13:42:51;;;;;;;14.70;4.90;;;;;;;26.11;39.74;100164.50;4225229;27;20453;-56
2022/01/03 13:49:29;;;;;;;15.50;5.95;;;;;;;26.04;39.53;100157.78;4226934;27;20101;-59
2022/01/03 13:51:32;;;;;;;19.98;5.60;;;;;;;26.07;39.61;100165.59;4224212;28;20061;-54
2022/01/03 13:53:35;;;;;;;19.00;5.47;;;;;;;26.06;39.80;100161.22;4228627;27;20036;-56
2022/01/03 13:55:39;;;;;;;13.60;5.60;;;;;;;26.04;39.63;100157.78;4223695;27;20040;-55
2022/01/03 13:57:43;;;;;;;13.33;5.60;;;;;;;26.08;39.61;100164.66;4230169;27;20137;-57
2022/01/03 13:59:46;;;;;;;15.70;5.40;;;;;;;26.12;39.54;100163.56;4221758;28;20285;-58
2022/01/03 14:01:50;;;;;;;14.93;5.28;;;;;;;26.17;39.61;100154.44;4228538;28;20040;-55
2022/01/03 14:03:57;;;;;;;13.40;5.55;;;;;;;26.19;39.61;100157.88;4231370;28;20043;-54
2022/01/03 14:06:20;;;;;;;12.25;5.20;;;;;;;26.20;39.49;100152.47;4226072;28;20119;-59
2022/01/03 14:08:23;;;;;;;9.75;5.25;;;;;;;26.17;39.49;100151.75;4223283;28;20036;-62
2022/01/03 14:10:39;;;;;;;15.48;5.30;;;;;;;26.18;39.74;100148.16;4230907;28;20039;-62
2022/01/03 14:12:50;;;;;;;21.10;5.78;;;;;;;26.21;39.72;100148.88;4226230;28;20109;-62
2022/01/03 14:14:55;;;;;;;16.60;5.45;;;;;;;26.24;39.30;100142.47;4222131;28;20042;-61
2022/01/03 14:17:00;;;;;;;15.07;4.80;;;;;;;26.27;39.51;100137.00;4223305;28;20051;-61
2022/01/03 14:19:11;;;;;;;18.08;5.38;;;;;;;26.26;39.53;100138.78;4227669;28;20233;-57
2022/01/03 14:21:18;;;;;;;30.92;5.95;;;;;;;26.25;39.54;100139.72;4224332;28;20139;-59
2022/01/03 14:23:22;;;;;;;13.43;5.60;;;;;;;26.28;39.32;100134.25;4239522;28;20095;-59
2022/01/03 14:25:27;;;;;;;11.30;5.57;;;;;;;26.23;39.41;100130.97;4232581;28;20408;-59
2022/01/03 14:27:32;;;;;;;15.48;5.55;;;;;;;26.22;39.67;100141.72;4215057;28;20959;-59
2022/01/03 14:29:37;;;;;;;28.48;5.68;;;;;;;26.24;39.16;100127.38;4226362;28;20118;-64
2022/01/03 14:31:45;;;;;;;22.58;5.82;;;;;;;26.25;39.19;100122.88;4219533;28;20040;-59
2022/01/03 14:34:04;;;;;;;15.15;5.50;;;;;;;26.25;39.27;100123.72;4227947;27;20472;-61
2022/01/03 14:36:12;;;;;;;14.77;5.40;;;;;;;26.25;39.34;100134.41;4223635;28;20055;-57
2022/01/03 14:38:18;;;;;;;22.10;6.68;;;;;;;26.25;38.85;100133.53;4225693;28;20040;-59
2022/01/03 14:40:36;;;;;;;22.20;5.68;;;;;;;26.20;39.29;100122.31;4227959;27;20092;-58
2022/01/03 14:42:39;;;;;;;20.90;6.03;;;;;;;26.19;39.11;100126.75;4234179;28;20407;-66
2022/01/03 14:44:42;;;;;;;22.58;6.07;;;;;;;26.17;39.33;100133.09;4228999;28;20512;-62
2022/01/03 14:46:45;;;;;;;31.17;5.75;;;;;;;26.16;39.54;100128.75;4218843;28;20039;-58
2022/01/03 14:48:53;;;;;;;33.03;6.88;;;;;;;26.19;39.42;100134.75;4226831;27;20039;-58
2022/01/03 14:51:06;;;;;;;22.20;6.38;;;;;;;26.20;39.28;100130.31;4229107;27;20067;-57
2022/01/03 14:53:09;;;;;;;18.13;5.75;;;;;;;26.24;39.16;100127.38;4228250;27;20505;-61
2022/01/03 14:55:17;;;;;;;29.30;6.60;;;;;;;26.24;39.00;100126.50;4232772;27;20034;-57
2022/01/03 14:57:23;;;;;;;19.60;5.90;;;;;;;26.21;39.34;100132.00;4225343;28;20035;-61
2022/01/03 14:59:29;;;;;;;21.30;6.10;;;;;;;26.19;39.51;100131.25;4231840;27;20408;-57
2022/01/03 15:01:33;;;;;;;28.98;6.38;;;;;;;26.24;38.90;100129.16;4223195;28;20051;-54
2022/01/03 15:03:36;;;;;;;29.42;7.13;;;;;;;26.24;39.22;100123.81;4228814;27;20044;-55
2022/01/03 15:05:40;;;;;;;29.10;7.05;;;;;;;26.18;39.25;100126.84;4217991;22;20140;-56
2022/01/03 15:07:44;;;;;;;43.78;9.20;;;;;;;26.10;39.39;100121.94;4182095;28;20087;-55
2022/01/03 15:09:47;;;;;;;43.95;9.57;;;;;;;26.06;39.31;100123.06;4174718;28;20049;-55
2022/01/03 15:12:12;;;;;;;62.78;10.90;;;;;;;26.02;39.55;100130.38;4178427;28;20049;-58
2022/01/03 15:14:20;;;;;;;80.47;11.10;;;;;;;26.00;39.75;100123.41;4160971;28;20498;-60
2022/01/03 15:16:23;;;;;;;39.55;8.80;;;;;;;25.99;39.51;100117.19;4180203;28;20111;-59
2022/01/03 15:18:31;;;;;;;57.47;11.35;;;;;;;26.02;39.57;100126.84;4175723;28;20044;-54
2022/01/03 15:20:34;;;;;;;56.55;9.45;;;;;;;25.99;39.83;100129.66;4175242;28;20502;-58
2022/01/03 15:22:37;;;;;;;31.50;8.95;;;;;;;26.00;39.67;100121.59;4175915;28;20053;-52
2022/01/03 15:24:45;;;;;;;44.28;10.15;;;;;;;25.97;39.51;100113.75;4180000;28;20413;-55
2022/01/03 15:26:48;;;;;;;57.85;10.95;;;;;;;25.95;39.84;100110.31;4177672;28;20053;-62
2022/01/03 15:28:54;;;;;;;42.03;8.82;;;;;;;25.94;39.93;100103.28;4177037;28;20037;-59
2022/01/03 15:31:02;;;;;;;43.80;9.70;;;;;;;25.99;39.83;100106.53;4151720;28;20052;-58
2022/01/03 15:33:05;;;;;;;36.10;9.52;;;;;;;26.02;39.52;100111.75;4172889;28;20056;-59
2022/01/03 15:35:09;;;;;;;39.30;8.07;;;;;;;26.08;39.36;100103.41;4171728;28;20041;-59
2022/01/03 15:37:13;;;;;;;52.90;7.68;;;;;;;26.14;39.21;100104.84;4170548;28;20295;-59
2022/01/03 15:39:16;;;;;;;32.58;7.13;;;;;;;26.11;39.27;100084.56;4172509;28;20045;-59
2022/01/03 15:41:19;;;;;;;35.63;7.57;;;;;;;26.17;38.93;100087.81;4173340;28;20090;-59
2022/01/03 15:43:23;;;;;;;19.90;6.10;;;;;;;26.20;38.67;100082.34;4176879;28;20045;-58
2022/01/03 15:45:27;;;;;;;31.48;7.45;;;;;;;26.23;38.67;100083.00;4173509;28;20067;-58
2022/01/03 15:47:31;;;;;;;25.98;7.10;;;;;;;26.23;38.74;100083.00;4178676;28;20453;-60
2022/01/03 15:49:35;;;;;;;20.58;5.90;;;;;;;26.25;38.51;100093.56;4171901;28;20420;-58
2022/01/03 15:51:38;;;;;;;21.88;7.15;;;;;;;26.26;38.46;100089.97;4171724;28;20170;-58
2022/01/03 15:53:43;;;;;;;24.63;5.50;;;;;;;26.26;38.44;100095.31;4179484;28;20045;-58
2022/01/03 15:55:45;;;;;;;;;;;;;;;26.27;39.01;100087.22;4175042;28;20037;-58
2022/01/03 15:57:48;;;;;;;17.23;5.43;;;;;;;26.29;38.31;100084.47;4176288;28;21015;-58
2022/01/03 15:59:51;;;;;;;21.45;5.50;;;;;;;26.30;38.54;100081.72;4176621;28;20569;-59
2022/01/03 16:01:56;;;;;;;13.95;5.22;;;;;;;26.31;38.15;100079.91;4161793;28;20057;-59
2022/01/03 16:03:59;;;;;;;27.65;6.47;;;;;;;26.27;38.39;100081.03;4168491;28;20125;-58
2022/01/03 16:06:02;;;;;;;19.35;5.13;;;;;;;26.23;38.46;100079.50;4171639;28;20393;-58
2022/01/03 16:08:08;;;;;;;17.52;5.28;;;;;;;26.22;38.49;100080.44;4157143;28;20050;-57
2022/01/03 16:10:11;;;;;;;16.92;5.57;;;;;;;26.20;38.28;100077.00;4178296;28;20387;-57
2022/01/03 16:12:14;;;;;;;15.90;5.17;;;;;;;26.19;38.32;100077.94;4152849;28;20049;-57
2022/01/03 16:14:19;;;;;;;12.48;4.45;;;;;;;26.15;38.22;100063.91;4168906;28;20052;-60
2022/01/03 16:16:22;;;;;;;12.50;4.40;;;;;;;26.14;38.45;100054.22;4166571;28;20507;-60
2022/01/03 16:18:26;;;;;;;19.55;5.30;;;;;;;26.16;38.46;100057.66;4173453;28;20060;-57
2022/01/03 16:20:30;;;;;;;9.95;5.10;;;;;;;26.18;38.28;100061.09;4167603;28;20033;-58
2022/01/03 16:22:33;;;;;;;14.02;4.30;;;;;;;26.17;38.39;100061.16;4170546;28;20033;-58
2022/01/03 16:24:36;;;;;;;11.27;4.50;;;;;;;26.20;38.37;100055.69;4172383;28;20049;-58
2022/01/03 16:26:39;;;;;;;10.32;4.65;;;;;;;26.21;38.05;100057.38;4171697;28;20037;-58
2022/01/03 16:28:43;;;;;;;11.05;4.40;;;;;;;26.22;38.30;100053.78;4179029;28;20041;-58
2022/01/03 16:30:46;;;;;;;15.40;5.25;;;;;;;26.23;38.08;100044.84;4174151;28;20045;-58
2022/01/03 16:32:49;;;;;;;16.58;4.82;;;;;;;26.23;38.15;100044.84;4172782;28;20042;-58
2022/01/03 16:34:53;;;;;;;10.13;4.38;;;;;;;26.24;38.17;100044.75;4179419;28;20044;-59
2022/01/03 16:36:56;;;;;;;;;;;;;;;26.23;38.41;100042.19;4172186;28;20037;-57
2022/01/03 16:38:59;;;;;;;12.52;4.95;;;;;;;26.28;38.15;100037.44;4170294;28;19921;-59
2022/01/03 16:41:02;;;;;;;12.43;4.40;;;;;;;26.13;38.20;100039.19;4175253;28;20116;-59
2022/01/03 16:43:05;;;;;;;9.23;4.40;;;;;;;26.04;37.93;100024.59;4179048;28;20048;-60
2022/01/03 16:45:09;;;;;;;12.05;4.93;;;;;;;25.96;38.20;100027.66;4178350;28;20087;-59
2022/01/03 16:47:13;;;;;;;13.02;4.47;;;;;;;25.99;38.22;100021.28;4152351;28;20091;-58
2022/01/03 16:49:16;;;;;;;13.88;3.80;;;;;;;26.06;38.11;100016.50;4170772;28;20045;-58
2022/01/03 16:51:20;;;;;;;12.65;3.92;;;;;;;26.08;38.15;100002.16;4173854;28;20041;-57
2022/01/03 16:53:23;;;;;;;11.15;4.70;;;;;;;26.11;37.88;100004.63;4179532;28;20567;-58
2022/01/03 16:55:26;;;;;;;9.88;4.70;;;;;;;26.11;38.09;100004.63;4177006;28;20045;-58
2022/01/03 16:57:30;;;;;;;11.65;4.35;;;;;;;26.13;37.97;100007.22;4178834;28;20045;-59
2022/01/03 16:59:33;;;;;;;12.07;4.05;;;;;;;26.15;38.18;99999.13;4177673;28;20040;-58
2022/01/03 17:01:36;;;;;;;9.95;3.60;;;;;;;26.13;37.84;99997.41;4180136;28;20052;-59
2022/01/03 17:03:39;;;;;;;12.57;4.85;;;;;;;26.14;37.94;100006.28;4173817;28;20509;-58
2022/01/03 17:05:42;;;;;;;11.80;4.40;;;;;;;26.13;38.01;99992.06;4177702;28;20072;-59
2022/01/03 17:07:47;;;;;;;10.35;3.97;;;;;;;26.13;37.94;99997.41;4158592;28;20041;-59
2022/01/03 17:09:50;;;;;;;16.70;4.03;;;;;;;26.18;37.77;99993.63;4178578;28;20055;-62
2022/01/03 17:11:53;;;;;;;11.82;4.22;;;;;;;26.18;37.89;99993.63;4172028;28;20148;-60
2022/01/03 17:13:56;;;;;;;7.03;4.40;;;;;;;26.18;37.86;99990.97;4175980;28;20056;-58
2022/01/03 17:15:58;;;;;;;11.50;3.85;;;;;;;26.17;37.74;99990.09;4177760;28;20134;-62
2022/01/03 17:18:02;;;;;;;7.60;4.20;;;;;;;26.15;37.93;99999.97;4174706;28;20045;-59
2022/01/03 17:20:06;;;;;;;13.60;3.83;;;;;;;26.14;37.63;99992.97;4179579;28;20382;-61
2022/01/03 17:22:10;;;;;;;13.65;3.83;;;;;;;26.17;37.61;99997.22;4178265;28;20099;-60
2022/01/03 17:24:15;;;;;;;10.32;4.47;;;;;;;26.18;37.87;99999.81;4173517;28;20037;-60
2022/01/03 17:26:19;;;;;;;14.57;4.15;;;;;;;26.19;37.50;99995.34;4175115;28;20060;-59
2022/01/03 17:28:24;;;;;;;12.25;4.07;;;;;;;26.18;37.62;99988.28;4172421;28;20426;-59
2022/01/03 17:30:32;;;;;;;9.82;3.83;;;;;;;26.17;37.69;99994.56;4174060;28;20033;-57
2022/01/03 17:32:35;;;;;;;13.43;4.90;;;;;;;26.12;37.76;99984.19;4176993;28;20084;-57
2022/01/03 17:34:39;;;;;;;10.33;4.67;;;;;;;26.07;37.93;99981.78;4178623;28;20498;-59
2022/01/03 17:36:42;;;;;;;10.30;4.10;;;;;;;25.98;34.96;99979.63;4177019;28;20037;-63
2022/01/03 17:38:45;;;;;;;8.65;3.70;;;;;;;25.79;34.87;99983.34;4179905;28;20040;-63
2022/01/03 17:40:50;;;;;;;11.85;4.15;;;;;;;25.69;36.38;99982.16;4178549;28;20083;-62
2022/01/03 17:42:53;;;;;;;13.70;4.43;;;;;;;25.62;37.26;99986.09;4179818;28;20037;-61
2022/01/03 17:44:56;;;;;;;10.80;3.65;;;;;;;25.64;37.59;99983.34;4178502;28;20049;-61
2022/01/03 17:46:59;;;;;;;16.13;4.90;;;;;;;25.64;34.33;99978.88;4176783;28;20512;-60
2022/01/03 17:49:04;;;;;;;12.05;4.07;;;;;;;25.59;34.53;99988.94;4171439;28;20064;-59
2022/01/03 17:51:09;;;;;;;13.00;4.68;;;;;;;25.57;35.90;99982.84;4178030;28;20041;-58
2022/01/03 17:53:12;;;;;;;8.73;4.10;;;;;;;25.58;36.14;99984.56;4181124;28;20036;-58
2022/01/03 17:55:15;;;;;;;11.35;3.70;;;;;;;25.56;35.85;99978.47;4175932;28;20494;-60
2022/01/03 17:57:21;;;;;;;14.45;4.45;;;;;;;25.54;35.70;99967.03;4179057;28;20040;-59
2022/01/03 17:59:25;;;;;;;10.40;3.58;;;;;;;25.54;35.38;99967.03;4160214;28;20719;-59
2022/01/03 18:01:28;;;;;;;8.52;3.50;;;;;;;25.52;35.39;99968.94;4169678;28;20052;-59
2022/01/03 18:03:31;;;;;;;12.38;3.88;;;;;;;25.48;35.74;99951.41;4175387;28;20036;-58
2022/01/03 18:05:35;;;;;;;8.30;3.67;;;;;;;25.57;36.20;99946.44;4175650;28;20049;-61
2022/01/03 18:07:38;;;;;;;11.15;3.47;;;;;;;25.69;36.10;99947.53;4175342;28;20098;-59
2022/01/03 18:09:42;;;;;;;15.45;3.75;;;;;;;25.66;36.34;99937.06;4172460;28;20449;-58
2022/01/03 18:11:47;;;;;;;8.85;3.05;;;;;;;25.71;36.44;99945.63;4175169;28;20056;-58
2022/01/03 18:13:51;;;;;;;11.13;3.97;;;;;;;25.80;36.38;99941.59;4177013;28;20045;-53
2022/01/03 18:15:54;;;;;;;10.50;4.05;;;;;;;25.91;36.16;99933.00;4177870;28;20275;-58
2022/01/03 18:17:58;;;;;;;7.70;3.50;;;;;;;26.02;36.06;99935.94;4171738;28;20132;-52
2022/01/03 18:20:00;;;;;;;13.02;4.60;;;;;;;26.02;36.03;99937.72;4178619;28;20064;-58
2022/01/03 18:22:05;;;;;;;16.00;4.07;;;;;;;26.01;36.27;99936.03;4169544;28;20068;-53
2022/01/03 18:24:08;;;;;;;11.20;4.78;;;;;;;26.03;36.31;99940.28;4180247;28;20065;-52
2022/01/03 18:26:11;;;;;;;21.17;6.05;;;;;;;26.08;36.31;99943.56;4180857;28;20048;-55
2022/01/03 18:28:14;;;;;;;20.60;5.97;;;;;;;26.08;36.22;99943.56;4173905;28;20060;-58
2022/01/03 18:30:19;;;;;;;20.55;7.15;;;;;;;26.06;36.52;99945.44;4179128;28;20108;-58
2022/01/03 18:32:22;;;;;;;21.70;7.43;;;;;;;26.01;35.67;99944.84;4181842;28;20098;-55
2022/01/03 18:34:27;;;;;;;18.70;7.30;;;;;;;25.88;35.96;99938.50;4189732;28;20053;-57
2022/01/03 18:36:31;;;;;;;15.68;6.60;;;;;;;25.77;35.52;99937.31;4186567;28;20044;-57
2022/01/03 18:38:34;;;;;;;11.30;4.93;;;;;;;25.67;35.30;99935.25;4188410;28;20552;-57
2022/01/03 18:40:39;;;;;;;18.48;6.03;;;;;;;25.58;34.97;99932.19;4190709;28;20112;-57
2022/01/03 18:42:43;;;;;;;15.32;4.93;;;;;;;25.55;34.47;99936.81;4187191;28;20041;-57
2022/01/03 18:44:46;;;;;;;10.55;4.63;;;;;;;25.48;34.30;99932.78;4184021;28;20041;-58
2022/01/03 18:46:51;;;;;;;9.82;4.20;;;;;;;25.43;34.27;99933.88;4181505;28;20045;-56
2022/01/03 18:48:54;;;;;;;14.68;5.03;;;;;;;25.44;35.28;99938.28;4188921;28;20116;-55
2022/01/03 18:50:57;;;;;;;12.60;5.80;;;;;;;25.51;35.54;99932.59;4183117;28;20043;-55
2022/01/03 18:53:00;;;;;;;14.07;5.70;;;;;;;25.54;35.74;99930.63;4182828;28;20052;-53
2022/01/03 18:55:05;;;;;;;10.07;5.43;;;;;;;25.57;36.09;99935.78;4177515;28;20043;-58
2022/01/03 18:57:08;;;;;;;15.77;6.78;;;;;;;25.59;36.05;99935.69;4182031;28;20457;-57
2022/01/03 18:59:15;;;;;;;11.25;6.05;;;;;;;25.63;36.05;99928.38;4176090;28;20049;-58
2022/01/03 19:01:18;;;;;;;12.10;5.72;;;;;;;25.75;35.93;99917.88;4181045;28;20067;-55
2022/01/03 19:03:22;;;;;;;14.53;7.13;;;;;;;25.87;35.81;99918.13;4173830;28;20071;-59
2022/01/03 19:05:26;;;;;;;15.75;5.78;;;;;;;25.98;35.78;99921.03;4179582;28;20045;-58
2022/01/03 19:07:29;;;;;;;11.30;5.90;;;;;;;26.02;35.71;99919.94;4177412;28;20466;-58
2022/01/03 19:09:32;;;;;;;10.73;5.15;;;;;;;26.09;35.43;99910.66;4179651;28;20124;-61
2022/01/03 19:11:35;;;;;;;13.40;5.32;;;;;;;26.03;35.74;99910.97;4175979;28;20072;-59
2022/01/03 19:13:38;;;;;;;14.20;5.32;;;;;;;26.08;35.69;99900.94;4177742;28;20041;-61
2022/01/03 19:15:44;;;;;;;10.70;5.13;;;;;;;26.13;35.42;99914.81;4178963;28;20036;-60
2022/01/03 19:17:47;;;;;;;14.43;5.78;;;;;;;26.11;35.74;99910.56;4173322;28;20045;-60
2022/01/03 19:19:53;;;;;;;20.42;6.30;;;;;;;26.13;35.51;99914.81;4178785;28;20079;-62
2022/01/03 19:21:56;;;;;;;12.27;5.65;;;;;;;26.15;35.51;99913.88;4176853;28;20045;-59
2022/01/03 19:23:59;;;;;;;14.90;5.07;;;;;;;26.13;35.77;99920.13;4175293;28;20033;-60
2022/01/03 19:26:02;;;;;;;16.35;5.97;;;;;;;26.16;35.67;99918.25;4181644;28;20387;-61
2022/01/03 19:28:10;;;;;;;9.95;5.25;;;;;;;26.12;35.59;99913.13;4179500;28;20040;-59
2022/01/03 19:30:13;;;;;;;15.27;5.95;;;;;;;26.16;35.54;99916.44;4175053;28;20493;-61
2022/01/03 19:32:51;;;;;;;12.05;5.05;;;;;;;26.11;35.79;99916.72;4179585;28;20120;-58
2022/01/03 19:39:39;;;;;;;11.30;5.03;;;;;;;26.11;35.87;99895.41;4177028;28;20049;-54
2022/01/03 19:41:42;;;;;;;14.75;5.53;;;;;;;26.10;36.27;99891.03;4177305;28;20048;-60
2022/01/03 19:43:47;;;;;;;23.70;6.45;;;;;;;26.04;36.64;99893.22;4176351;28;20127;-58
2022/01/03 19:45:53;;;;;;;17.52;5.93;;;;;;;26.00;36.78;99887.19;4176795;28;20398;-59
2022/01/03 19:47:57;;;;;;;13.88;5.32;;;;;;;26.00;37.03;99884.53;4174756;28;20763;-59
2022/01/03 19:50:02;;;;;;;19.75;5.15;;;;;;;25.99;37.11;99876.59;4176303;28;20064;-59
2022/01/03 19:52:06;;;;;;;22.73;6.50;;;;;;;25.98;37.54;99878.41;4179774;28;20041;-60
2022/01/03 19:54:09;;;;;;;18.58;5.72;;;;;;;26.00;37.25;99883.69;4157859;28;20724;-56
2022/01/03 19:56:12;;;;;;;15.18;6.05;;;;;;;26.01;37.31;99883.59;4177025;28;20415;-59
2022/01/03 19:58:16;;;;;;;15.00;5.82;;;;;;;26.02;37.45;99882.66;4180288;28;20683;-60
2022/01/03 20:00:19;;;;;;;16.98;6.32;;;;;;;26.03;37.46;99879.00;4172872;28;20045;-59
2022/01/03 20:02:22;;;;;;;14.13;5.80;;;;;;;25.99;37.60;99877.44;4176502;28;20057;-62